Time;durP1;ratioP1;P1;durP2;ratioP2;P2;SDS_P1;SDS_P2;PMS_P1;PMS_P2;Temp;Humidity;BMP_temperature;BMP_pressure;BME280_temperature;BME280_humidity;BME280_pressure;Samples;Min_cycle;Max_cycle;Signal;HPM_P1;HPM_P2
2021/09/01 00:02:08;;;;;;;13.05;3.03;;;16.60;99.90;;;;;;5053521;28;20051;-73
2021/09/01 00:04:34;;;;;;;11.95;2.80;;;16.60;99.90;;;;;;5054404;28;20033;-73
2021/09/01 00:07:00;;;;;;;8.73;3.03;;;16.60;99.90;;;;;;5052619;28;20052;-73
2021/09/01 00:09:25;;;;;;;10.50;2.22;;;16.60;99.90;;;;;;5054452;28;20025;-73
2021/09/01 00:11:51;;;;;;;10.77;3.22;;;16.60;99.90;;;;;;5051706;28;20059;-73
2021/09/01 00:14:17;;;;;;;3.83;2.50;;;16.60;99.90;;;;;;5054705;28;20441;-73
2021/09/01 00:16:43;;;;;;;5.60;2.20;;;16.60;99.90;;;;;;5052931;28;20021;-73
2021/09/01 00:19:10;;;;;;;8.60;3.60;;;16.60;99.90;;;;;;5053800;28;20071;-74
2021/09/01 00:21:36;;;;;;;11.93;2.92;;;16.60;99.90;;;;;;5053537;28;20029;-74
2021/09/01 00:24:02;;;;;;;7.20;3.28;;;16.60;99.90;;;;;;5052970;28;20094;-73
2021/09/01 00:26:28;;;;;;;7.20;2.90;;;16.60;99.90;;;;;;5053801;28;20025;-73
2021/09/01 00:28:54;;;;;;;6.85;2.38;;;16.60;99.90;;;;;;5049727;28;20065;-73
2021/09/01 00:31:20;;;;;;;7.88;2.88;;;16.60;99.90;;;;;;5084451;28;20021;-73
2021/09/01 00:33:47;;;;;;;5.53;2.38;;;16.60;99.90;;;;;;5053933;28;20366;-73
2021/09/01 00:36:12;;;;;;;9.82;3.03;;;16.60;99.90;;;;;;5053461;28;20042;-73
2021/09/01 00:38:39;;;;;;;11.38;2.60;;;16.60;99.90;;;;;;5053869;28;20398;-73
2021/09/01 00:41:05;;;;;;;17.07;4.07;;;16.70;99.90;;;;;;5053912;28;20024;-73
2021/09/01 00:43:31;;;;;;;10.18;2.67;;;16.60;99.90;;;;;;5051251;28;20033;-73
2021/09/01 00:45:57;;;;;;;17.40;4.85;;;16.70;99.90;;;;;;5039303;28;20052;-73
2021/09/01 00:48:24;;;;;;;8.32;2.63;;;16.70;99.90;;;;;;5049294;28;20437;-73
2021/09/01 00:50:51;;;;;;;9.73;3.00;;;16.70;99.90;;;;;;5054166;28;20388;-74
2021/09/01 00:53:18;;;;;;;4.60;2.33;;;16.70;99.90;;;;;;5051730;28;20404;-73
2021/09/01 00:55:46;;;;;;;11.48;2.47;;;16.70;99.90;;;;;;5053976;28;20056;-73
2021/09/01 00:58:17;;;;;;;10.70;2.30;;;16.60;99.90;;;;;;5052849;28;20086;-73
2021/09/01 01:01:14;;;;;;;15.57;3.33;;;16.60;99.90;;;;;;5047514;28;20389;-73
2021/09/01 01:03:53;;;;;;;5.78;2.38;;;16.60;99.90;;;;;;5052211;28;20029;-73
2021/09/01 01:06:23;;;;;;;11.73;3.13;;;16.60;99.90;;;;;;5053565;28;20106;-73
2021/09/01 01:08:49;;;;;;;9.32;2.55;;;16.60;99.90;;;;;;5053206;28;20033;-73
2021/09/01 01:11:15;;;;;;;11.98;2.70;;;16.60;99.90;;;;;;5052353;28;20102;-73
2021/09/01 01:13:48;;;;;;;13.35;3.42;;;16.60;99.90;;;;;;5053364;28;20024;-73
2021/09/01 01:16:24;;;;;;;12.07;3.05;;;16.50;99.90;;;;;;5043455;28;20052;-73
2021/09/01 01:18:51;;;;;;;11.73;2.88;;;16.60;99.90;;;;;;5051550;28;20037;-73
2021/09/01 01:21:20;;;;;;;12.30;2.83;;;16.50;99.90;;;;;;5053129;28;20036;-73
2021/09/01 01:23:53;;;;;;;10.43;2.50;;;16.60;99.90;;;;;;5052159;28;20028;-73
2021/09/01 01:26:20;;;;;;;8.98;2.40;;;16.60;99.90;;;;;;5052958;28;20127;-73
2021/09/01 01:29:00;;;;;;;9.40;2.92;;;16.70;99.90;;;;;;5052224;28;20110;-73
2021/09/01 01:31:27;;;;;;;12.40;3.28;;;16.70;99.90;;;;;;5053205;28;20366;-73
2021/09/01 01:33:53;;;;;;;12.30;3.38;;;16.70;99.90;;;;;;5053247;28;20036;-73
2021/09/01 01:36:19;;;;;;;13.90;2.20;;;16.70;99.90;;;;;;5052315;28;20017;-73
2021/09/01 01:38:45;;;;;;;9.65;2.80;;;16.70;99.90;;;;;;5052174;28;20047;-73
2021/09/01 01:41:11;;;;;;;6.60;2.50;;;16.70;99.90;;;;;;5052761;28;20032;-73
2021/09/01 01:43:37;;;;;;;9.98;3.40;;;16.70;99.90;;;;;;5037460;28;20033;-73
2021/09/01 01:46:06;;;;;;;10.20;2.83;;;16.60;99.90;;;;;;5047890;28;20036;-73
2021/09/01 01:48:33;;;;;;;11.93;3.28;;;16.60;99.90;;;;;;5052647;28;20068;-73
2021/09/01 01:51:01;;;;;;;11.30;2.73;;;16.70;99.90;;;;;;5052251;28;20025;-73
2021/09/01 01:53:27;;;;;;;;;;;16.70;99.90;;;;;;5053058;28;20029;-73
2021/09/01 01:55:52;;;;;;;7.78;2.50;;;16.70;99.90;;;;;;5052946;28;19909;-73
2021/09/01 01:58:18;;;;;;;10.88;2.42;;;16.70;99.90;;;;;;5052664;28;20104;-73
2021/09/01 02:00:44;;;;;;;13.02;3.78;;;16.70;99.90;;;;;;5051869;28;20078;-73
2021/09/01 02:03:09;;;;;;;15.38;3.83;;;16.70;99.90;;;;;;5051091;28;20021;-73
2021/09/01 02:05:35;;;;;;;12.88;3.38;;;16.70;99.90;;;;;;5052560;28;21547;-73
2021/09/01 02:08:01;;;;;;;15.68;3.10;;;16.60;99.90;;;;;;5051360;28;20029;-73
2021/09/01 02:10:26;;;;;;;10.65;2.17;;;16.60;99.90;;;;;;5046028;28;20375;-73
2021/09/01 02:12:52;;;;;;;13.57;3.63;;;16.60;99.90;;;;;;5046468;28;20040;-73
2021/09/01 02:15:18;;;;;;;11.70;2.80;;;16.60;99.90;;;;;;5050879;28;20453;-72
2021/09/01 02:17:43;;;;;;;13.15;3.70;;;16.60;99.90;;;;;;5052751;28;20108;-72
2021/09/01 02:20:11;;;;;;;12.73;2.88;;;16.50;99.90;;;;;;5052112;28;20051;-72
2021/09/01 02:22:38;;;;;;;18.23;2.88;;;16.60;99.90;;;;;;5039072;28;20482;-72
2021/09/01 02:25:04;;;;;;;5.55;2.83;;;16.60;99.90;;;;;;5036970;28;20112;-72
2021/09/01 02:27:30;;;;;;;11.68;2.90;;;16.60;99.90;;;;;;5051161;28;20045;-72
2021/09/01 02:29:56;;;;;;;14.23;2.60;;;16.60;99.90;;;;;;5048108;28;20046;-72
2021/09/01 02:32:22;;;;;;;6.80;3.10;;;16.60;99.90;;;;;;5052505;28;20028;-72
2021/09/01 02:34:48;;;;;;;12.25;3.20;;;16.60;99.90;;;;;;5055165;28;20021;-72
2021/09/01 02:37:14;;;;;;;11.15;3.13;;;16.50;99.90;;;;;;5056629;28;20458;-72
2021/09/01 02:39:39;;;;;;;7.03;2.80;;;16.50;99.90;;;;;;5056810;28;20029;-72
2021/09/01 02:42:05;;;;;;;12.57;3.00;;;16.50;99.90;;;;;;5055823;28;20370;-72
2021/09/01 02:44:31;;;;;;;12.70;3.33;;;16.50;99.90;;;;;;5056573;28;20029;-72
2021/09/01 02:46:56;;;;;;;7.85;2.55;;;16.50;99.90;;;;;;5056643;28;21432;-73
2021/09/01 02:49:22;;;;;;;9.98;2.70;;;16.50;99.90;;;;;;5057092;28;20040;-73
2021/09/01 02:51:48;;;;;;;12.48;3.20;;;16.60;99.90;;;;;;5055471;28;20045;-73
2021/09/01 02:54:14;;;;;;;13.15;2.35;;;16.50;99.90;;;;;;5056224;28;20025;-73
2021/09/01 02:56:39;;;;;;;11.30;3.63;;;16.50;99.90;;;;;;5064632;28;20111;-72
2021/09/01 02:59:05;;;;;;;9.88;2.58;;;16.40;99.90;;;;;;5069660;28;20048;-72
2021/09/01 03:01:30;;;;;;;7.63;3.10;;;16.50;99.90;;;;;;5067623;28;20041;-72
2021/09/01 03:03:56;;;;;;;6.97;2.70;;;16.50;99.90;;;;;;5070337;28;20025;-72
2021/09/01 03:06:21;;;;;;;10.90;2.90;;;16.50;99.90;;;;;;5072093;28;20392;-72
2021/09/01 03:08:47;;;;;;;10.18;2.65;;;16.60;99.90;;;;;;5072986;28;20039;-72
2021/09/01 03:11:13;;;;;;;7.75;2.75;;;16.60;99.90;;;;;;5073301;28;20032;-72
2021/09/01 03:13:38;;;;;;;6.57;2.67;;;16.60;99.90;;;;;;5073277;28;20021;-71
2021/09/01 03:16:04;;;;;;;7.20;2.40;;;16.60;99.90;;;;;;5071114;28;20049;-72
2021/09/01 03:18:29;;;;;;;14.30;2.97;;;16.60;99.90;;;;;;5070736;28;20045;-72
2021/09/01 03:20:55;;;;;;;9.70;3.20;;;16.50;99.90;;;;;;5066441;28;20108;-73
2021/09/01 03:23:21;;;;;;;13.82;3.40;;;16.40;99.90;;;;;;5069206;28;20068;-72
2021/09/01 03:25:46;;;;;;;11.85;2.40;;;16.40;99.90;;;;;;5070408;28;20035;-72
2021/09/01 03:28:12;;;;;;;15.93;3.45;;;16.40;99.90;;;;;;5069100;28;20029;-71
2021/09/01 03:30:38;;;;;;;8.95;2.20;;;16.40;99.90;;;;;;5067337;28;20017;-72
2021/09/01 03:33:04;;;;;;;13.13;3.25;;;16.40;99.90;;;;;;5066648;28;20044;-72
2021/09/01 03:35:30;;;;;;;9.88;2.45;;;16.40;99.90;;;;;;5067997;28;20036;-73
2021/09/01 03:37:56;;;;;;;8.38;2.20;;;16.50;99.90;;;;;;5066124;28;20409;-72
2021/09/01 03:40:22;;;;;;;5.47;2.38;;;16.50;99.90;;;;;;5063333;28;20108;-72
2021/09/01 03:42:47;;;;;;;14.55;3.75;;;16.50;99.90;;;;;;5044281;28;20398;-72
2021/09/01 03:45:13;;;;;;;6.55;1.95;;;16.60;99.90;;;;;;5056532;28;20025;-73
2021/09/01 03:47:39;;;;;;;7.30;1.90;;;16.60;99.90;;;;;;5051433;28;20029;-73
2021/09/01 03:50:07;;;;;;;4.25;1.85;;;16.70;99.90;;;;;;5055657;28;20041;-73
2021/09/01 03:52:33;;;;;;;8.70;2.78;;;16.70;99.90;;;;;;5056339;28;20047;-73
2021/09/01 03:55:01;;;;;;;9.13;2.80;;;16.60;99.90;;;;;;5055094;28;20049;-72
2021/09/01 03:57:26;;;;;;;5.53;2.30;;;16.60;99.90;;;;;;5052671;28;20103;-72
2021/09/01 03:59:52;;;;;;;7.72;2.08;;;16.60;99.90;;;;;;5055975;28;20461;-72
2021/09/01 04:02:17;;;;;;;9.95;2.83;;;16.60;99.90;;;;;;5041139;28;20088;-72
2021/09/01 04:04:43;;;;;;;7.30;2.83;;;16.60;99.90;;;;;;5055443;28;20032;-72
2021/09/01 04:07:09;;;;;;;6.65;2.47;;;16.50;99.90;;;;;;5052358;28;20440;-72
2021/09/01 04:09:34;;;;;;;7.57;2.05;;;16.50;99.90;;;;;;5054922;28;20481;-73
2021/09/01 04:12:00;;;;;;;4.75;2.40;;;16.50;99.90;;;;;;5055101;28;20033;-73
2021/09/01 04:14:25;;;;;;;11.77;2.50;;;16.50;99.90;;;;;;5053364;28;20075;-72
2021/09/01 04:16:51;;;;;;;11.90;3.70;;;16.50;99.90;;;;;;5053829;28;20025;-73
2021/09/01 04:19:17;;;;;;;10.63;2.45;;;16.60;99.90;;;;;;5054121;28;20505;-73
2021/09/01 04:21:42;;;;;;;11.05;2.40;;;16.50;99.90;;;;;;5054527;28;20033;-73
2021/09/01 04:24:08;;;;;;;12.88;2.80;;;16.50;99.90;;;;;;5053567;28;20499;-73
2021/09/01 04:26:34;;;;;;;9.23;3.63;;;16.50;99.90;;;;;;5054487;28;20061;-73
2021/09/01 04:28:59;;;;;;;11.48;2.35;;;16.40;99.90;;;;;;5053672;28;20388;-73
2021/09/01 04:31:25;;;;;;;7.38;2.65;;;16.50;99.90;;;;;;5040522;28;20375;-74
2021/09/01 04:33:51;;;;;;;13.60;3.60;;;16.40;99.90;;;;;;5051053;28;20025;-74
2021/09/01 04:36:18;;;;;;;5.47;2.53;;;16.50;99.90;;;;;;5054218;28;20465;-73
2021/09/01 04:38:44;;;;;;;8.30;2.38;;;16.50;99.90;;;;;;5054365;28;20033;-73
2021/09/01 04:41:09;;;;;;;7.28;2.40;;;16.50;99.90;;;;;;5054027;28;20366;-73
2021/09/01 04:43:35;;;;;;;5.60;2.80;;;16.60;99.90;;;;;;5051316;28;20037;-73
2021/09/01 04:46:00;;;;;;;7.43;2.08;;;16.60;99.90;;;;;;5053203;28;20044;-73
2021/09/01 04:48:26;;;;;;;4.65;2.38;;;16.60;99.90;;;;;;5053368;28;20033;-73
2021/09/01 04:50:53;;;;;;;9.02;2.20;;;16.70;99.90;;;;;;5053779;28;20029;-73
2021/09/01 04:53:19;;;;;;;6.80;2.55;;;16.70;99.90;;;;;;5049398;28;20103;-73
2021/09/01 04:55:45;;;;;;;9.82;2.22;;;16.70;99.90;;;;;;5054044;28;20035;-73
2021/09/01 04:58:11;;;;;;;9.93;2.53;;;16.70;99.90;;;;;;5053039;28;20021;-73
2021/09/01 05:00:37;;;;;;;9.90;2.10;;;16.70;99.90;;;;;;5053342;28;20033;-73
2021/09/01 05:03:02;;;;;;;4.72;1.83;;;16.80;99.90;;;;;;5051357;28;20021;-73
2021/09/01 05:05:28;;;;;;;7.93;2.78;;;16.80;99.90;;;;;;5053923;28;20025;-73
2021/09/01 05:07:54;;;;;;;11.18;2.42;;;16.70;99.90;;;;;;5053509;28;20028;-73
2021/09/01 05:10:19;;;;;;;3.10;1.83;;;16.70;99.90;;;;;;5053729;28;20393;-73
2021/09/01 05:12:48;;;;;;;4.88;1.75;;;16.80;99.90;;;;;;5053393;28;20059;-73
2021/09/01 05:15:14;;;;;;;10.23;2.17;;;16.70;99.90;;;;;;5052159;28;20053;-73
2021/09/01 05:17:40;;;;;;;4.43;1.95;;;16.70;99.90;;;;;;5052097;28;20021;-73
2021/09/01 05:20:06;;;;;;;9.57;2.50;;;16.80;99.90;;;;;;5053445;28;20053;-73
2021/09/01 05:22:35;;;;;;;2.80;1.73;;;16.80;99.90;;;;;;5053318;28;20167;-73
2021/09/01 05:25:10;;;;;;;8.18;2.80;;;16.80;99.90;;;;;;5044823;28;20052;-73
2021/09/01 05:27:41;;;;;;;5.38;2.30;;;16.80;99.90;;;;;;5051471;28;20075;-73
2021/09/01 05:30:09;;;;;;;7.07;1.92;;;16.70;99.90;;;;;;5053255;28;20020;-73
2021/09/01 05:32:37;;;;;;;4.57;2.03;;;16.80;99.90;;;;;;5053570;28;20053;-73
2021/09/01 05:35:04;;;;;;;9.13;2.17;;;16.70;99.90;;;;;;5050481;28;20112;-73
2021/09/01 05:37:30;;;;;;;7.43;2.00;;;16.80;99.90;;;;;;5038292;28;20030;-73
2021/09/01 05:39:58;;;;;;;4.80;1.55;;;16.70;99.90;;;;;;5048913;28;20021;-73
2021/09/01 05:42:26;;;;;;;8.60;2.10;;;16.80;99.90;;;;;;5052821;28;20025;-73
2021/09/01 05:44:53;;;;;;;4.63;2.05;;;16.80;99.90;;;;;;5049289;28;20083;-73
2021/09/01 05:47:20;;;;;;;6.40;2.33;;;16.80;99.90;;;;;;5052978;28;20481;-73
2021/09/01 05:49:48;;;;;;;2.50;1.58;;;16.90;99.90;;;;;;5052293;28;20099;-73
2021/09/01 05:52:15;;;;;;;13.27;2.40;;;16.90;99.90;;;;;;5051456;28;20048;-73
2021/09/01 05:54:43;;;;;;;11.20;3.15;;;16.90;99.90;;;;;;5052765;28;20033;-73
2021/09/01 05:57:14;;;;;;;11.82;2.42;;;16.80;99.90;;;;;;5052163;28;20048;-73
2021/09/01 06:00:15;;;;;;;5.10;2.13;;;16.80;99.90;;;;;;5051503;28;20128;-73
2021/09/01 06:02:52;;;;;;;5.28;2.25;;;16.70;99.90;;;;;;5030613;28;20046;-73
2021/09/01 06:05:19;;;;;;;8.80;2.92;;;16.70;99.90;;;;;;5052650;28;20381;-73
2021/09/01 06:07:51;;;;;;;;;;;16.80;99.90;;;;;;5053048;28;20448;-73
2021/09/01 06:10:22;;;;;;;4.97;2.30;;;16.80;99.90;;;;;;5056260;28;20303;-73
2021/09/01 06:12:52;;;;;;;6.88;2.88;;;16.80;99.90;;;;;;5056552;28;20021;-73
2021/09/01 06:15:18;;;;;;;5.03;1.77;;;16.80;99.90;;;;;;5055833;28;20036;-73
2021/09/01 06:17:44;;;;;;;7.32;2.25;;;16.90;99.90;;;;;;5057575;28;20502;-73
2021/09/01 06:20:10;;;;;;;6.03;2.70;;;17.00;99.90;;;;;;5060567;28;20381;-73
2021/09/01 06:22:36;;;;;;;4.35;2.50;;;17.00;99.90;;;;;;5055615;28;20028;-73
2021/09/01 06:25:02;;;;;;;7.07;2.10;;;17.00;99.90;;;;;;5056669;28;20029;-73
2021/09/01 06:27:28;;;;;;;14.43;3.15;;;17.00;99.90;;;;;;5055274;28;20041;-73
2021/09/01 06:29:53;;;;;;;6.47;1.90;;;17.00;99.90;;;;;;5055682;28;20086;-73
2021/09/01 06:32:19;;;;;;;2.97;1.70;;;16.90;99.90;;;;;;5056434;28;20059;-73
2021/09/01 06:34:45;;;;;;;8.40;1.85;;;17.00;99.90;;;;;;5054272;28;20021;-73
2021/09/01 06:37:10;;;;;;;6.07;2.30;;;17.00;99.90;;;;;;5055350;28;20027;-73
2021/09/01 06:39:36;;;;;;;9.00;2.08;;;17.10;99.90;;;;;;5056267;28;20397;-73
2021/09/01 06:42:02;;;;;;;7.90;2.35;;;17.10;99.90;;;;;;5055938;28;20420;-73
2021/09/01 06:44:27;;;;;;;2.10;1.48;;;17.10;99.90;;;;;;5056147;28;20416;-73
2021/09/01 06:46:53;;;;;;;6.60;2.83;;;17.10;99.90;;;;;;5056131;28;20033;-73
2021/09/01 06:49:18;;;;;;;7.13;1.83;;;17.10;99.90;;;;;;5055502;28;20065;-73
2021/09/01 06:51:44;;;;;;;5.60;2.05;;;17.20;99.90;;;;;;5056105;28;20029;-73
2021/09/01 06:54:10;;;;;;;4.68;1.98;;;17.20;99.90;;;;;;5055950;28;20025;-73
2021/09/01 06:56:35;;;;;;;7.63;1.80;;;17.10;99.90;;;;;;5056057;28;20021;-73
2021/09/01 06:59:01;;;;;;;4.32;2.10;;;17.20;99.90;;;;;;5054054;28;20041;-73
2021/09/01 07:01:26;;;;;;;8.88;2.22;;;17.20;99.90;;;;;;5056112;28;20503;-73
2021/09/01 07:03:53;;;;;;;6.15;2.15;;;17.20;99.90;;;;;;5054857;28;20029;-73
2021/09/01 07:06:19;;;;;;;5.20;1.60;;;17.30;99.90;;;;;;5050133;28;20049;-73
2021/09/01 07:08:46;;;;;;;6.25;1.90;;;17.30;99.90;;;;;;5049931;28;20138;-71
2021/09/01 07:11:11;;;;;;;8.88;2.40;;;17.30;99.90;;;;;;5054306;28;20036;-73
2021/09/01 07:13:37;;;;;;;5.28;1.77;;;17.20;99.90;;;;;;5055554;28;20397;-73
2021/09/01 07:16:03;;;;;;;3.88;1.58;;;17.30;99.90;;;;;;5054798;28;20555;-72
2021/09/01 07:18:29;;;;;;;4.63;1.92;;;17.30;99.90;;;;;;5055464;28;20041;-73
2021/09/01 07:20:54;;;;;;;9.13;2.35;;;17.40;99.90;;;;;;5052608;28;20457;-72
2021/09/01 07:23:20;;;;;;;8.32;1.80;;;17.40;99.90;;;;;;5055479;28;20381;-72
2021/09/01 07:25:46;;;;;;;5.88;2.08;;;17.40;99.90;;;;;;5054183;28;20561;-73
2021/09/01 07:28:12;;;;;;;15.18;2.42;;;17.50;99.90;;;;;;5035538;28;20486;-73
2021/09/01 07:30:37;;;;;;;4.32;2.30;;;17.50;99.90;;;;;;5051062;28;20389;-72
2021/09/01 07:33:03;;;;;;;10.27;2.35;;;17.50;99.90;;;;;;5055176;28;20477;-73
2021/09/01 07:35:29;;;;;;;7.55;1.98;;;17.50;99.90;;;;;;5048098;28;20021;-73
2021/09/01 07:37:55;;;;;;;7.82;2.17;;;17.40;99.90;;;;;;5050578;28;20494;-72
2021/09/01 07:40:22;;;;;;;5.75;1.83;;;17.40;99.90;;;;;;5054814;28;20093;-72
2021/09/01 07:42:48;;;;;;;13.40;2.25;;;17.50;99.90;;;;;;5053892;28;20029;-72
2021/09/01 07:45:15;;;;;;;14.13;1.85;;;17.50;99.90;;;;;;5053278;28;20082;-73
2021/09/01 07:47:48;;;;;;;6.00;1.85;;;17.50;99.90;;;;;;5050875;28;20105;-73
2021/09/01 07:50:13;;;;;;;11.57;2.58;;;17.40;99.90;;;;;;5045607;28;20021;-73
2021/09/01 07:52:39;;;;;;;5.93;1.90;;;17.40;99.90;;;;;;5054584;28;20036;-73
2021/09/01 07:55:05;;;;;;;4.63;2.03;;;17.30;99.90;;;;;;5054867;28;20389;-73
2021/09/01 07:57:31;;;;;;;7.90;1.73;;;17.20;99.90;;;;;;5053003;28;20043;-73
2021/09/01 07:59:57;;;;;;;2.67;2.05;;;17.20;99.90;;;;;;5054996;28;20104;-73
2021/09/01 08:02:22;;;;;;;8.80;2.88;;;17.30;99.90;;;;;;5038506;28;20378;-73
2021/09/01 08:04:48;;;;;;;7.05;2.03;;;17.40;99.90;;;;;;5044655;28;20104;-73
2021/09/01 08:07:14;;;;;;;4.97;1.80;;;17.60;99.90;;;;;;5054608;28;20021;-72
2021/09/01 08:09:39;;;;;;;8.07;2.20;;;17.60;99.90;;;;;;5054499;28;20465;-72
2021/09/01 08:12:06;;;;;;;8.23;2.00;;;17.60;99.90;;;;;;5052958;28;20096;-73
2021/09/01 08:14:31;;;;;;;5.30;2.00;;;17.60;99.90;;;;;;5054003;28;20043;-72
2021/09/01 08:16:57;;;;;;;5.60;1.85;;;17.60;99.90;;;;;;5054402;28;20460;-72
2021/09/01 08:19:23;;;;;;;6.43;2.15;;;17.60;99.90;;;;;;5052953;28;20087;-73
2021/09/01 08:21:48;;;;;;;4.00;1.45;;;17.70;99.90;;;;;;5042317;28;20503;-73
2021/09/01 08:24:14;;;;;;;8.40;1.92;;;17.80;99.90;;;;;;5054438;28;20032;-73
2021/09/01 08:26:40;;;;;;;7.20;2.40;;;17.70;99.90;;;;;;5050149;28;20385;-71
2021/09/01 08:29:05;;;;;;;8.15;3.17;;;17.70;99.90;;;;;;5052886;28;20072;-73
2021/09/01 08:31:31;;;;;;;8.00;2.22;;;17.70;99.90;;;;;;5048664;28;20037;-74
2021/09/01 08:33:56;;;;;;;6.90;2.90;;;17.70;99.90;;;;;;5049129;28;20028;-74
2021/09/01 08:36:22;;;;;;;5.03;1.77;;;17.70;99.90;;;;;;5052692;28;20106;-74
2021/09/01 08:38:48;;;;;;;3.00;1.50;;;17.70;99.90;;;;;;5052390;28;20404;-75
2021/09/01 08:41:16;;;;;;;6.57;2.05;;;17.70;99.90;;;;;;5052625;28;20021;-74
2021/09/01 08:43:42;;;;;;;5.57;2.25;;;17.90;99.90;;;;;;5052180;28;20392;-74
2021/09/01 08:46:07;;;;;;;5.20;2.25;;;17.90;99.90;;;;;;5053372;28;20088;-74
2021/09/01 08:48:38;;;;;;;6.13;1.77;;;17.90;99.90;;;;;;5051359;28;20031;-74
2021/09/01 08:51:03;;;;;;;7.68;1.80;;;17.90;99.90;;;;;;5052287;28;20063;-73
2021/09/01 08:53:29;;;;;;;5.75;2.05;;;17.90;99.90;;;;;;5050867;28;20025;-74
2021/09/01 08:55:55;;;;;;;4.80;2.47;;;18.00;99.90;;;;;;5053982;28;20113;-74
2021/09/01 08:58:20;;;;;;;6.82;1.52;;;18.00;99.90;;;;;;5052535;28;20063;-74
2021/09/01 09:00:46;;;;;;;5.30;2.00;;;18.00;99.90;;;;;;5052160;28;20041;-74
2021/09/01 09:03:12;;;;;;;11.52;1.92;;;18.00;99.90;;;;;;5053817;28;20021;-74
2021/09/01 09:05:39;;;;;;;5.22;1.98;;;18.10;99.90;;;;;;5053351;28;20492;-74
2021/09/01 09:08:08;;;;;;;12.52;3.08;;;18.20;99.90;;;;;;5054362;28;20484;-74
2021/09/01 09:10:38;;;;;;;8.48;2.15;;;18.20;99.90;;;;;;5053882;28;20354;-74
2021/09/01 09:13:09;;;;;;;7.82;1.90;;;18.20;99.90;;;;;;5048195;28;20029;-73
2021/09/01 09:15:36;;;;;;;8.18;2.53;;;18.20;99.90;;;;;;5051667;28;20025;-73
2021/09/01 09:18:03;;;;;;;8.38;2.30;;;18.20;99.90;;;;;;5051033;28;20431;-74
2021/09/01 09:20:32;;;;;;;5.03;1.87;;;18.10;99.90;;;;;;5052267;28;20052;-74
2021/09/01 09:23:05;;;;;;;8.18;1.95;;;18.10;99.90;;;;;;5053768;28;20311;-74
2021/09/01 09:25:51;;;;;;;8.77;2.22;;;18.10;99.90;;;;;;5054502;28;20486;-73
2021/09/01 09:28:16;;;;;;;10.38;2.08;;;17.90;99.90;;;;;;5059531;28;20033;-73
2021/09/01 09:30:46;;;;;;;7.18;1.98;;;17.70;99.90;;;;;;5067488;28;20048;-73
2021/09/01 09:33:16;;;;;;;7.78;1.52;;;17.60;99.90;;;;;;5057896;28;20033;-73
2021/09/01 09:35:59;;;;;;;3.90;1.67;;;17.50;99.90;;;;;;5065249;28;20080;-73
2021/09/01 09:38:32;;;;;;;2.15;1.50;;;17.50;99.90;;;;;;5104315;28;20155;-74
2021/09/01 09:41:00;;;;;;;6.53;1.60;;;17.50;99.90;;;;;;5066025;28;20111;-73
2021/09/01 09:43:27;;;;;;;6.50;2.25;;;17.50;99.90;;;;;;5062488;28;20013;-73
2021/09/01 09:46:22;;;;;;;8.67;1.83;;;17.50;99.90;;;;;;5068009;28;20041;-73
2021/09/01 09:48:48;;;;;;;6.65;1.70;;;17.50;99.90;;;;;;5057068;28;20271;-72
2021/09/01 09:51:17;;;;;;;5.50;1.75;;;17.40;99.90;;;;;;5068015;28;20135;-74
2021/09/01 09:53:48;;;;;;;5.32;1.65;;;17.40;99.90;;;;;;5058787;28;20029;-74
2021/09/01 09:56:24;;;;;;;7.93;1.40;;;17.50;99.90;;;;;;5055170;28;21435;-73
2021/09/01 09:58:55;;;;;;;8.40;1.77;;;17.50;99.90;;;;;;5048201;28;20046;-73
2021/09/01 10:01:22;;;;;;;6.07;1.90;;;17.50;99.90;;;;;;5047604;28;21312;-73
2021/09/01 10:03:49;;;;;;;9.68;1.85;;;17.60;99.90;;;;;;5047512;28;20021;-73
2021/09/01 10:06:17;;;;;;;6.75;2.58;;;17.70;99.90;;;;;;5050414;28;20056;-74
2021/09/01 10:08:45;;;;;;;4.07;1.77;;;17.80;99.90;;;;;;5050977;28;20033;-73
2021/09/01 10:11:13;;;;;;;3.10;1.48;;;17.90;99.90;;;;;;5052386;28;20037;-74
2021/09/01 10:13:41;;;;;;;4.88;1.85;;;18.00;99.90;;;;;;5054881;28;20518;-74
2021/09/01 10:16:19;;;;;;;2.75;1.73;;;18.10;99.90;;;;;;5052958;28;20013;-74
2021/09/01 10:18:59;;;;;;;8.00;1.48;;;18.20;99.90;;;;;;5052590;28;20060;-74
2021/09/01 10:21:28;;;;;;;5.60;1.40;;;18.20;99.90;;;;;;5044799;28;20028;-72
2021/09/01 10:23:53;;;;;;;8.68;2.95;;;18.20;99.90;;;;;;5052126;28;20060;-73
2021/09/01 10:26:28;;;;;;;3.42;1.77;;;18.20;99.90;;;;;;5049738;28;20048;-73
2021/09/01 10:28:58;;;;;;;4.97;1.70;;;18.30;99.90;;;;;;5048845;28;20041;-72
2021/09/01 10:31:30;;;;;;;3.42;1.52;;;18.30;99.90;;;;;;5048867;28;20033;-72
2021/09/01 10:34:16;;;;;;;3.42;1.52;;;18.40;99.90;;;;;;5051084;28;20079;-72
2021/09/01 10:36:46;;;;;;;13.65;4.32;;;18.40;99.90;;;;;;5049761;28;20040;-72
2021/09/01 10:39:16;;;;;;;6.50;2.13;;;18.50;99.90;;;;;;5050947;28;20047;-72
2021/09/01 10:41:42;;;;;;;5.78;1.70;;;18.60;99.90;;;;;;5051213;28;20047;-72
2021/09/01 10:44:11;;;;;;;7.15;1.77;;;18.50;99.90;;;;;;5051866;28;20384;-73
2021/09/01 10:46:54;;;;;;;9.07;1.48;;;18.60;99.90;;;;;;5051614;28;20095;-73
2021/09/01 10:49:25;;;;;;;6.65;2.90;;;18.70;99.90;;;;;;5050093;28;20035;-73
2021/09/01 10:51:53;;;;;;;5.72;2.03;;;18.80;99.90;;;;;;5050883;28;20021;-73
2021/09/01 10:54:31;;;;;;;1.83;1.20;;;18.80;99.90;;;;;;5044068;28;20025;-73
2021/09/01 10:56:59;;;;;;;2.95;1.90;;;18.90;99.90;;;;;;5053577;28;20056;-73
2021/09/01 10:59:25;;;;;;;;;;;18.80;99.90;;;;;;5054674;28;20266;-73
2021/09/01 11:02:15;;;;;;;8.20;2.22;;;18.80;99.90;;;;;;5053911;28;19919;-73
2021/09/01 11:04:58;;;;;;;3.25;1.27;;;18.80;99.90;;;;;;5048989;28;20037;-73
2021/09/01 11:07:29;;;;;;;1.92;1.33;;;18.90;99.90;;;;;;5056045;28;20032;-73
2021/09/01 11:09:57;;;;;;;3.53;1.77;;;18.90;99.90;;;;;;5052680;28;20485;-73
2021/09/01 11:12:24;;;;;;;8.75;1.50;;;19.00;99.90;;;;;;5053409;28;20044;-73
2021/09/01 11:14:51;;;;;;;6.43;2.33;;;19.10;99.90;;;;;;5054086;28;20025;-73
2021/09/01 11:17:20;;;;;;;2.45;1.33;;;19.20;99.90;;;;;;5053967;28;20018;-73
2021/09/01 11:19:48;;;;;;;6.75;1.30;;;19.30;99.90;;;;;;5040806;28;20048;-73
2021/09/01 11:22:26;;;;;;;3.08;1.25;;;19.30;99.90;;;;;;5054243;28;20105;-73
2021/09/01 11:25:11;;;;;;;4.03;1.27;;;19.40;99.90;;;;;;5054349;28;20040;-73
2021/09/01 11:27:44;;;;;;;3.20;1.15;;;19.30;99.90;;;;;;5049005;28;20025;-73
2021/09/01 11:30:11;;;;;;;6.70;1.48;;;19.40;99.90;;;;;;5054685;28;20120;-73
2021/09/01 11:32:40;;;;;;;7.38;1.40;;;19.40;99.90;;;;;;5054954;28;20029;-73
2021/09/01 11:35:13;;;;;;;4.45;1.27;;;19.20;99.90;;;;;;5055710;28;20074;-73
2021/09/01 11:37:38;;;;;;;8.02;3.33;;;19.10;99.90;;;;;;5053792;28;20017;-73
2021/09/01 11:40:05;;;;;;;4.30;1.77;;;18.80;99.90;;;;;;5053022;28;20497;-73
2021/09/01 11:42:34;;;;;;;4.05;1.52;;;18.60;99.90;;;;;;5054703;28;20025;-73
2021/09/01 11:45:01;;;;;;;7.50;1.85;;;18.40;99.90;;;;;;5054763;28;20032;-73
2021/09/01 11:47:26;;;;;;;3.72;1.52;;;18.40;99.90;;;;;;5054664;28;20489;-73
2021/09/01 11:49:54;;;;;;;4.40;1.33;;;18.30;99.90;;;;;;5054134;28;20047;-73
2021/09/01 11:52:30;;;;;;;3.20;1.45;;;18.30;99.90;;;;;;5055069;28;20135;-73
2021/09/01 11:54:57;;;;;;;8.85;2.67;;;18.30;99.90;;;;;;5055278;28;20029;-73
2021/09/01 11:57:30;;;;;;;5.55;1.75;;;18.20;99.90;;;;;;5053614;28;20029;-73
2021/09/01 12:00:07;;;;;;;5.65;1.80;;;18.30;99.90;;;;;;5053650;28;20170;-73
2021/09/01 12:02:33;;;;;;;1.92;1.17;;;18.50;99.90;;;;;;5053540;28;20040;-73
2021/09/01 12:04:59;;;;;;;4.57;1.80;;;18.50;99.90;;;;;;5055024;28;20040;-73
2021/09/01 12:07:28;;;;;;;3.38;1.27;;;18.70;99.90;;;;;;5053185;28;20037;-73
2021/09/01 12:10:04;;;;;;;6.32;1.90;;;18.70;99.90;;;;;;5052554;28;20377;-73
2021/09/01 12:12:34;;;;;;;7.75;1.45;;;18.70;99.90;;;;;;5052962;28;20515;-73
2021/09/01 12:15:12;;;;;;;4.53;0.88;;;18.70;99.90;;;;;;5042658;28;20037;-73
2021/09/01 12:17:38;;;;;;;5.38;1.35;;;18.70;99.90;;;;;;5038173;28;20378;-73
2021/09/01 12:20:05;;;;;;;2.85;1.15;;;18.90;99.90;;;;;;5053425;28;20045;-73
2021/09/01 12:22:34;;;;;;;4.17;1.27;;;18.90;99.90;;;;;;5052706;28;20533;-73
2021/09/01 12:25:11;;;;;;;7.00;1.90;;;19.00;99.90;;;;;;5054618;28;20112;-73
2021/09/01 12:27:39;;;;;;;3.80;1.13;;;19.00;99.90;;;;;;5052446;28;20029;-73
2021/09/01 12:30:10;;;;;;;2.05;1.08;;;18.90;99.90;;;;;;5052321;28;20036;-73
2021/09/01 12:32:36;;;;;;;3.42;1.08;;;18.90;99.90;;;;;;5053241;28;20504;-73
2021/09/01 12:35:06;;;;;;;5.35;1.20;;;18.90;99.90;;;;;;5053119;28;20033;-73
2021/09/01 12:37:35;;;;;;;4.18;1.25;;;18.90;99.90;;;;;;5052697;28;20106;-73
2021/09/01 12:40:09;;;;;;;2.85;1.27;;;19.10;99.90;;;;;;5046120;28;20037;-73
2021/09/01 12:42:39;;;;;;;2.28;0.88;;;19.30;99.90;;;;;;5054382;28;20033;-73
2021/09/01 12:45:08;;;;;;;2.95;0.98;;;19.50;99.90;;;;;;5053381;28;20055;-73
2021/09/01 12:47:34;;;;;;;2.50;1.02;;;19.50;99.90;;;;;;5052508;28;20045;-73
2021/09/01 12:50:02;;;;;;;1.77;0.93;;;19.50;99.90;;;;;;5052176;28;20036;-73